sensor_id;sensor_type;location;lat;lon;timestamp;pressure;altitude;pressure_sealevel;temperature;humidity
804;BME280;25687;49.976;8.240;2023-07-29T00:01:48;99525.22;;;18.21;100.00
804;BME280;25687;49.976;8.240;2023-07-29T00:04:14;99530.41;;;18.21;100.00
804;BME280;25687;49.976;8.240;2023-07-29T00:06:40;99534.03;;;18.11;100.00
804;BME280;25687;49.976;8.240;2023-07-29T00:09:05;99523.69;;;17.91;100.00
804;BME280;25687;49.976;8.240;2023-07-29T00:11:30;99518.78;;;17.98;100.00
804;BME280;25687;49.976;8.240;2023-07-29T00:13:57;99519.91;;;17.85;100.00
804;BME280;25687;49.976;8.240;2023-07-29T00:16:22;99523.47;;;17.84;100.00
804;BME280;25687;49.976;8.240;2023-07-29T00:18:48;99524.81;;;17.88;100.00
804;BME280;25687;49.976;8.240;2023-07-29T00:21:14;99517.31;;;17.85;100.00
804;BME280;25687;49.976;8.240;2023-07-29T00:23:39;99505.94;;;17.86;100.00
804;BME280;25687;49.976;8.240;2023-07-29T00:26:05;99514.41;;;17.88;100.00
804;BME280;25687;49.976;8.240;2023-07-29T00:28:30;99504.84;;;17.89;100.00
804;BME280;25687;49.976;8.240;2023-07-29T00:30:55;99508.66;;;17.95;100.00
804;BME280;25687;49.976;8.240;2023-07-29T00:33:20;99507.41;;;17.99;100.00
804;BME280;25687;49.976;8.240;2023-07-29T00:35:46;99503.31;;;17.96;100.00
804;BME280;25687;49.976;8.240;2023-07-29T00:38:11;99498.94;;;17.97;100.00
804;BME280;25687;49.976;8.240;2023-07-29T00:40:37;99499.16;;;18.03;100.00
804;BME280;25687;49.976;8.240;2023-07-29T00:43:02;99502.75;;;17.93;100.00
804;BME280;25687;49.976;8.240;2023-07-29T00:45:29;99497.69;;;17.91;100.00
804;BME280;25687;49.976;8.240;2023-07-29T00:47:54;99492.91;;;17.96;100.00
804;BME280;25687;49.976;8.240;2023-07-29T00:50:19;99490.84;;;18.00;100.00
804;BME280;25687;49.976;8.240;2023-07-29T00:52:45;99482.88;;;18.01;100.00
804;BME280;25687;49.976;8.240;2023-07-29T00:55:11;99482.44;;;18.06;100.00
804;BME280;25687;49.976;8.240;2023-07-29T00:57:36;99478.47;;;18.02;100.00
804;BME280;25687;49.976;8.240;2023-07-29T01:00:02;99479.16;;;18.04;100.00
804;BME280;25687;49.976;8.240;2023-07-29T01:02:29;99479.59;;;17.99;100.00
804;BME280;25687;49.976;8.240;2023-07-29T01:04:57;99479.59;;;17.99;100.00
804;BME280;25687;49.976;8.240;2023-07-29T01:07:30;99470.59;;;17.94;100.00
804;BME280;25687;49.976;8.240;2023-07-29T01:11:03;99455.84;;;17.84;100.00
804;BME280;25687;49.976;8.240;2023-07-29T01:13:27;99468.63;;;17.78;100.00
804;BME280;25687;49.976;8.240;2023-07-29T01:16:01;99468.03;;;17.84;100.00
804;BME280;25687;49.976;8.240;2023-07-29T01:18:35;99469.38;;;17.88;100.00
804;BME280;25687;49.976;8.240;2023-07-29T01:21:04;99471.41;;;17.94;100.00
804;BME280;25687;49.976;8.240;2023-07-29T01:23:34;99482.19;;;17.99;100.00
804;BME280;25687;49.976;8.240;2023-07-29T01:25:59;99484.53;;;18.02;100.00
804;BME280;25687;49.976;8.240;2023-07-29T01:28:25;99486.81;;;18.05;100.00
804;BME280;25687;49.976;8.240;2023-07-29T01:30:57;99480.81;;;18.05;100.00
804;BME280;25687;49.976;8.240;2023-07-29T01:33:26;99466.84;;;18.06;100.00
804;BME280;25687;49.976;8.240;2023-07-29T01:35:58;99470.78;;;18.10;100.00
804;BME280;25687;49.976;8.240;2023-07-29T01:38:33;99465.50;;;17.92;100.00
804;BME280;25687;49.976;8.240;2023-07-29T01:41:03;99468.09;;;17.92;100.00
804;BME280;25687;49.976;8.240;2023-07-29T01:43:29;99471.09;;;17.97;100.00
804;BME280;25687;49.976;8.240;2023-07-29T01:45:55;99472.31;;;18.03;100.00
804;BME280;25687;49.976;8.240;2023-07-29T01:48:21;99466.16;;;18.04;100.00
804;BME280;25687;49.976;8.240;2023-07-29T01:50:46;99469.28;;;18.08;100.00
804;BME280;25687;49.976;8.240;2023-07-29T01:53:12;99468.69;;;18.14;100.00
804;BME280;25687;49.976;8.240;2023-07-29T01:55:38;99465.06;;;18.25;100.00
804;BME280;25687;49.976;8.240;2023-07-29T01:58:03;99461.09;;;18.20;100.00
804;BME280;25687;49.976;8.240;2023-07-29T02:00:28;99454.41;;;18.00;100.00
804;BME280;25687;49.976;8.240;2023-07-29T02:02:54;99449.34;;;17.98;100.00
804;BME280;25687;49.976;8.240;2023-07-29T02:05:19;99447.63;;;18.07;100.00
804;BME280;25687;49.976;8.240;2023-07-29T02:07:44;99454.84;;;18.13;100.00
804;BME280;25687;49.976;8.240;2023-07-29T02:10:09;99454.31;;;18.10;100.00
804;BME280;25687;49.976;8.240;2023-07-29T02:12:35;99463.41;;;18.05;100.00
804;BME280;25687;49.976;8.240;2023-07-29T02:15:00;99458.34;;;18.04;100.00
804;BME280;25687;49.976;8.240;2023-07-29T02:17:25;99455.91;;;18.02;100.00
804;BME280;25687;49.976;8.240;2023-07-29T02:19:51;99450.44;;;17.96;100.00
804;BME280;25687;49.976;8.240;2023-07-29T02:22:17;99458.00;;;17.89;100.00
804;BME280;25687;49.976;8.240;2023-07-29T02:24:43;99458.91;;;17.70;100.00
804;BME280;25687;49.976;8.240;2023-07-29T02:27:08;99460.13;;;17.75;100.00
804;BME280;25687;49.976;8.240;2023-07-29T02:29:33;99437.03;;;17.72;100.00
804;BME280;25687;49.976;8.240;2023-07-29T02:31:59;99436.41;;;17.61;100.00
804;BME280;25687;49.976;8.240;2023-07-29T02:34:25;99416.56;;;17.59;100.00
804;BME280;25687;49.976;8.240;2023-07-29T02:36:50;99412.09;;;17.52;100.00
804;BME280;25687;49.976;8.240;2023-07-29T02:39:16;99423.22;;;17.44;100.00
804;BME280;25687;49.976;8.240;2023-07-29T02:41:41;99423.81;;;17.38;100.00
804;BME280;25687;49.976;8.240;2023-07-29T02:44:06;99429.91;;;17.47;100.00
804;BME280;25687;49.976;8.240;2023-07-29T02:46:32;99431.69;;;17.46;100.00
804;BME280;25687;49.976;8.240;2023-07-29T02:48:57;99419.91;;;17.52;100.00
804;BME280;25687;49.976;8.240;2023-07-29T02:51:22;99410.38;;;17.33;100.00
804;BME280;25687;49.976;8.240;2023-07-29T02:53:48;99405.13;;;17.24;100.00
804;BME280;25687;49.976;8.240;2023-07-29T02:56:13;99406.75;;;17.25;100.00
804;BME280;25687;49.976;8.240;2023-07-29T02:58:38;99421.91;;;17.30;100.00
804;BME280;25687;49.976;8.240;2023-07-29T03:01:05;99419.19;;;17.32;100.00
804;BME280;25687;49.976;8.240;2023-07-29T03:03:32;99415.38;;;17.26;100.00
804;BME280;25687;49.976;8.240;2023-07-29T03:06:02;99414.69;;;17.24;100.00
804;BME280;25687;49.976;8.240;2023-07-29T03:08:28;99419.44;;;17.29;100.00
804;BME280;25687;49.976;8.240;2023-07-29T03:10:54;99412.19;;;17.32;100.00
804;BME280;25687;49.976;8.240;2023-07-29T03:13:19;99419.44;;;17.29;100.00
804;BME280;25687;49.976;8.240;2023-07-29T03:15:45;99413.97;;;17.32;100.00
804;BME280;25687;49.976;8.240;2023-07-29T03:18:10;99414.69;;;17.24;100.00
804;BME280;25687;49.976;8.240;2023-07-29T03:20:35;99412.03;;;17.34;100.00
804;BME280;25687;49.976;8.240;2023-07-29T03:23:00;99414.22;;;17.38;100.00
804;BME280;25687;49.976;8.240;2023-07-29T03:25:26;99416.38;;;17.43;100.00
804;BME280;25687;49.976;8.240;2023-07-29T03:27:51;99419.78;;;17.43;100.00
804;BME280;25687;49.976;8.240;2023-07-29T03:30:20;99423.06;;;17.46;100.00
804;BME280;25687;49.976;8.240;2023-07-29T03:32:46;99414.91;;;17.40;100.00
804;BME280;25687;49.976;8.240;2023-07-29T03:35:11;99400.16;;;17.31;100.00
804;BME280;25687;49.976;8.240;2023-07-29T03:37:37;99406.19;;;17.32;100.00
804;BME280;25687;49.976;8.240;2023-07-29T03:40:02;99399.50;;;17.29;100.00
804;BME280;25687;49.976;8.240;2023-07-29T03:42:28;99390.84;;;17.29;100.00
804;BME280;25687;49.976;8.240;2023-07-29T03:44:53;99391.75;;;17.19;100.00
804;BME280;25687;49.976;8.240;2023-07-29T03:47:18;99397.75;;;17.20;100.00
804;BME280;25687;49.976;8.240;2023-07-29T03:49:43;99392.97;;;17.15;100.00
804;BME280;25687;49.976;8.240;2023-07-29T03:52:09;99391.22;;;17.16;100.00
804;BME280;25687;49.976;8.240;2023-07-29T03:54:35;99389.56;;;17.15;100.00
804;BME280;25687;49.976;8.240;2023-07-29T03:57:00;99387.91;;;17.14;100.00
804;BME280;25687;49.976;8.240;2023-07-29T03:59:25;99388.75;;;17.14;100.00
804;BME280;25687;49.976;8.240;2023-07-29T04:01:50;99390.31;;;16.97;100.00
804;BME280;25687;49.976;8.240;2023-07-29T04:04:16;99396.06;;;17.01;100.00
804;BME280;25687;49.976;8.240;2023-07-29T04:06:41;99391.50;;;17.03;100.00
804;BME280;25687;49.976;8.240;2023-07-29T04:09:06;99395.22;;;17.00;100.00
804;BME280;25687;49.976;8.240;2023-07-29T04:11:33;99387.31;;;17.02;100.00
804;BME280;25687;49.976;8.240;2023-07-29T04:13:58;99391.81;;;17.00;100.00
804;BME280;25687;49.976;8.240;2023-07-29T04:16:23;99393.31;;;17.02;100.00
804;BME280;25687;49.976;8.240;2023-07-29T04:18:48;99392.63;;;17.00;100.00
804;BME280;25687;49.976;8.240;2023-07-29T04:21:14;99390.72;;;17.02;100.00
804;BME280;25687;49.976;8.240;2023-07-29T04:23:39;99394.13;;;17.03;100.00
804;BME280;25687;49.976;8.240;2023-07-29T04:26:05;99400.88;;;16.96;100.00
804;BME280;25687;49.976;8.240;2023-07-29T04:28:30;99395.53;;;16.97;100.00
804;BME280;25687;49.976;8.240;2023-07-29T04:30:55;99402.47;;;16.97;100.00
804;BME280;25687;49.976;8.240;2023-07-29T04:33:21;99392.91;;;16.97;100.00
804;BME280;25687;49.976;8.240;2023-07-29T04:35:46;99401.94;;;16.93;100.00
804;BME280;25687;49.976;8.240;2023-07-29T04:38:11;99397.00;;;17.00;100.00
804;BME280;25687;49.976;8.240;2023-07-29T04:40:37;99394.56;;;16.98;100.00
804;BME280;25687;49.976;8.240;2023-07-29T04:43:02;99397.69;;;17.02;100.00
804;BME280;25687;49.976;8.240;2023-07-29T04:45:28;99393.31;;;17.02;100.00
804;BME280;25687;49.976;8.240;2023-07-29T04:47:54;99397.50;;;17.13;100.00
804;BME280;25687;49.976;8.240;2023-07-29T04:50:20;99392.41;;;17.21;100.00
804;BME280;25687;49.976;8.240;2023-07-29T04:52:45;99392.31;;;17.13;100.00
804;BME280;25687;49.976;8.240;2023-07-29T04:55:10;99392.88;;;17.07;100.00
804;BME280;25687;49.976;8.240;2023-07-29T04:57:35;99389.66;;;17.23;100.00
804;BME280;25687;49.976;8.240;2023-07-29T05:00:02;99379.34;;;17.31;100.00
804;BME280;25687;49.976;8.240;2023-07-29T05:02:27;99377.81;;;17.38;100.00
804;BME280;25687;49.976;8.240;2023-07-29T05:04:53;99375.38;;;17.37;100.00
804;BME280;25687;49.976;8.240;2023-07-29T05:07:18;99375.53;;;17.35;100.00
804;BME280;25687;49.976;8.240;2023-07-29T05:09:43;99373.63;;;17.55;100.00
804;BME280;25687;49.976;8.240;2023-07-29T05:12:09;99375.63;;;17.80;100.00
804;BME280;25687;49.976;8.240;2023-07-29T05:14:34;99379.13;;;17.88;100.00
804;BME280;25687;49.976;8.240;2023-07-29T05:16:59;99385.41;;;17.96;100.00
804;BME280;25687;49.976;8.240;2023-07-29T05:19:25;99397.47;;;18.15;100.00
804;BME280;25687;49.976;8.240;2023-07-29T05:21:51;99385.69;;;18.29;100.00
804;BME280;25687;49.976;8.240;2023-07-29T05:24:16;99381.38;;;18.19;100.00
804;BME280;25687;49.976;8.240;2023-07-29T05:26:41;99386.38;;;18.13;100.00
804;BME280;25687;49.976;8.240;2023-07-29T05:29:06;99389.56;;;18.06;100.00
804;BME280;25687;49.976;8.240;2023-07-29T05:31:32;99401.16;;;18.30;100.00
804;BME280;25687;49.976;8.240;2023-07-29T05:33:57;99400.56;;;18.63;100.00
804;BME280;25687;49.976;8.240;2023-07-29T05:36:23;99396.88;;;18.74;100.00
804;BME280;25687;49.976;8.240;2023-07-29T05:38:48;99401.13;;;19.01;100.00
804;BME280;25687;49.976;8.240;2023-07-29T05:41:13;99397.44;;;19.20;100.00
804;BME280;25687;49.976;8.240;2023-07-29T05:43:38;99393.97;;;19.46;100.00
804;BME280;25687;49.976;8.240;2023-07-29T05:46:04;99386.47;;;19.43;100.00
804;BME280;25687;49.976;8.240;2023-07-29T05:48:29;99384.38;;;19.46;100.00
804;BME280;25687;49.976;8.240;2023-07-29T05:50:54;99399.38;;;19.52;100.00
804;BME280;25687;49.976;8.240;2023-07-29T05:53:19;99427.69;;;19.39;100.00
804;BME280;25687;49.976;8.240;2023-07-29T05:55:45;99448.91;;;19.10;100.00
804;BME280;25687;49.976;8.240;2023-07-29T05:58:10;99439.34;;;18.48;100.00
804;BME280;25687;49.976;8.240;2023-07-29T06:00:36;99422.06;;;18.20;100.00
804;BME280;25687;49.976;8.240;2023-07-29T06:03:01;99426.97;;;18.05;100.00
804;BME280;25687;49.976;8.240;2023-07-29T06:05:26;99417.00;;;18.01;100.00
804;BME280;25687;49.976;8.240;2023-07-29T06:07:51;99418.41;;;17.95;100.00
804;BME280;25687;49.976;8.240;2023-07-29T06:10:17;99429.38;;;17.89;100.00
804;BME280;25687;49.976;8.240;2023-07-29T06:12:45;99433.38;;;17.83;100.00
804;BME280;25687;49.976;8.240;2023-07-29T06:15:11;99420.00;;;17.78;100.00
804;BME280;25687;49.976;8.240;2023-07-29T06:17:37;99409.97;;;17.65;100.00
804;BME280;25687;49.976;8.240;2023-07-29T06:20:03;99394.22;;;17.67;100.00
804;BME280;25687;49.976;8.240;2023-07-29T06:22:28;99407.06;;;17.68;100.00
804;BME280;25687;49.976;8.240;2023-07-29T06:24:53;99398.06;;;17.63;100.00
804;BME280;25687;49.976;8.240;2023-07-29T06:27:19;99396.50;;;17.52;100.00
804;BME280;25687;49.976;8.240;2023-07-29T06:29:44;99396.91;;;17.47;100.00
804;BME280;25687;49.976;8.240;2023-07-29T06:32:09;99404.81;;;17.55;100.00
804;BME280;25687;49.976;8.240;2023-07-29T06:34:34;99417.66;;;17.57;100.00
804;BME280;25687;49.976;8.240;2023-07-29T06:37:00;99423.94;;;17.64;100.00
804;BME280;25687;49.976;8.240;2023-07-29T06:39:25;99415.00;;;17.67;100.00
804;BME280;25687;49.976;8.240;2023-07-29T06:41:50;99426.22;;;17.67;100.00
804;BME280;25687;49.976;8.240;2023-07-29T06:44:16;99428.53;;;17.70;100.00
804;BME280;25687;49.976;8.240;2023-07-29T06:46:41;99430.03;;;17.73;100.00
804;BME280;25687;49.976;8.240;2023-07-29T06:49:06;99412.78;;;17.72;100.00
804;BME280;25687;49.976;8.240;2023-07-29T06:51:31;99376.09;;;17.75;100.00
804;BME280;25687;49.976;8.240;2023-07-29T06:54:00;99364.47;;;17.69;100.00
804;BME280;25687;49.976;8.240;2023-07-29T06:56:25;99400.16;;;17.77;100.00
804;BME280;25687;49.976;8.240;2023-07-29T06:58:51;99425.09;;;17.98;100.00
804;BME280;25687;49.976;8.240;2023-07-29T07:01:16;99437.38;;;18.05;100.00
804;BME280;25687;49.976;8.240;2023-07-29T07:03:41;99428.38;;;18.00;100.00
804;BME280;25687;49.976;8.240;2023-07-29T07:06:06;99428.97;;;18.12;100.00
804;BME280;25687;49.976;8.240;2023-07-29T07:08:32;99441.75;;;18.23;100.00
804;BME280;25687;49.976;8.240;2023-07-29T07:10:57;99468.16;;;18.46;100.00
804;BME280;25687;49.976;8.240;2023-07-29T07:13:22;99460.25;;;18.38;100.00
804;BME280;25687;49.976;8.240;2023-07-29T07:15:48;99459.97;;;18.23;100.00
804;BME280;25687;49.976;8.240;2023-07-29T07:18:13;99450.59;;;18.30;100.00
804;BME280;25687;49.976;8.240;2023-07-29T07:20:38;99457.22;;;18.43;100.00
804;BME280;25687;49.976;8.240;2023-07-29T07:23:03;99470.16;;;18.52;100.00
804;BME280;25687;49.976;8.240;2023-07-29T07:25:30;99473.19;;;18.66;100.00
804;BME280;25687;49.976;8.240;2023-07-29T07:27:56;99465.75;;;18.71;100.00
804;BME280;25687;49.976;8.240;2023-07-29T07:30:21;99465.25;;;18.94;100.00
804;BME280;25687;49.976;8.240;2023-07-29T07:32:46;99459.47;;;18.82;100.00
804;BME280;25687;49.976;8.240;2023-07-29T07:35:11;99455.09;;;19.09;100.00
804;BME280;25687;49.976;8.240;2023-07-29T07:37:37;99458.41;;;19.19;100.00
804;BME280;25687;49.976;8.240;2023-07-29T07:40:03;99460.41;;;19.25;100.00
804;BME280;25687;49.976;8.240;2023-07-29T07:42:28;99460.84;;;19.21;100.00
804;BME280;25687;49.976;8.240;2023-07-29T07:44:54;99462.16;;;19.25;100.00
804;BME280;25687;49.976;8.240;2023-07-29T07:47:19;99470.09;;;19.41;100.00
804;BME280;25687;49.976;8.240;2023-07-29T07:49:44;99466.91;;;19.64;100.00
804;BME280;25687;49.976;8.240;2023-07-29T07:52:09;99466.69;;;19.83;100.00
804;BME280;25687;49.976;8.240;2023-07-29T07:54:35;99458.38;;;20.13;100.00
804;BME280;25687;49.976;8.240;2023-07-29T07:57:00;99469.19;;;20.35;100.00
804;BME280;25687;49.976;8.240;2023-07-29T07:59:25;99463.63;;;20.46;100.00
804;BME280;25687;49.976;8.240;2023-07-29T08:01:50;99463.09;;;21.88;100.00
804;BME280;25687;49.976;8.240;2023-07-29T08:04:17;99438.50;;;24.22;100.00
804;BME280;25687;49.976;8.240;2023-07-29T08:06:42;99425.97;;;24.74;100.00
804;BME280;25687;49.976;8.240;2023-07-29T08:09:07;99422.94;;;24.70;100.00
804;BME280;25687;49.976;8.240;2023-07-29T08:11:33;99432.84;;;24.46;100.00
804;BME280;25687;49.976;8.240;2023-07-29T08:13:58;99430.69;;;24.28;100.00
804;BME280;25687;49.976;8.240;2023-07-29T08:16:24;99436.63;;;24.15;100.00
804;BME280;25687;49.976;8.240;2023-07-29T08:18:49;99429.09;;;23.91;100.00
804;BME280;25687;49.976;8.240;2023-07-29T08:21:14;99432.94;;;24.31;100.00
804;BME280;25687;49.976;8.240;2023-07-29T08:23:39;99436.63;;;26.24;100.00
804;BME280;25687;49.976;8.240;2023-07-29T08:26:05;99424.63;;;28.12;100.00
804;BME280;25687;49.976;8.240;2023-07-29T08:28:36;99426.50;;;29.78;100.00
804;BME280;25687;49.976;8.240;2023-07-29T08:31:02;99435.38;;;30.62;100.00
804;BME280;25687;49.976;8.240;2023-07-29T08:33:28;99441.50;;;30.63;100.00
804;BME280;25687;49.976;8.240;2023-07-29T08:35:53;99433.84;;;30.07;100.00
804;BME280;25687;49.976;8.240;2023-07-29T08:38:19;99427.19;;;29.43;100.00
804;BME280;25687;49.976;8.240;2023-07-29T08:43:47;99430.06;;;29.72;100.00
804;BME280;25687;49.976;8.240;2023-07-29T08:46:15;99428.44;;;29.22;100.00
804;BME280;25687;49.976;8.240;2023-07-29T08:48:42;99433.50;;;27.60;100.00
804;BME280;25687;49.976;8.240;2023-07-29T08:51:09;99430.16;;;28.54;100.00
804;BME280;25687;49.976;8.240;2023-07-29T08:53:36;99426.28;;;28.82;100.00
804;BME280;25687;49.976;8.240;2023-07-29T08:56:02;99435.50;;;30.55;100.00
804;BME280;25687;49.976;8.240;2023-07-29T08:58:28;99442.31;;;32.02;91.57
804;BME280;25687;49.976;8.240;2023-07-29T09:00:54;99440.47;;;32.03;84.31
804;BME280;25687;49.976;8.240;2023-07-29T09:03:20;99446.31;;;30.89;90.93
804;BME280;25687;49.976;8.240;2023-07-29T09:05:46;99442.81;;;29.63;100.00
804;BME280;25687;49.976;8.240;2023-07-29T09:08:12;99437.38;;;27.90;100.00
804;BME280;25687;49.976;8.240;2023-07-29T09:10:37;99440.06;;;26.79;100.00
804;BME280;25687;49.976;8.240;2023-07-29T09:13:04;99432.81;;;26.34;100.00
804;BME280;25687;49.976;8.240;2023-07-29T09:15:34;99444.56;;;26.18;100.00
804;BME280;25687;49.976;8.240;2023-07-29T09:18:11;99434.56;;;25.86;100.00
804;BME280;25687;49.976;8.240;2023-07-29T09:20:37;99445.13;;;26.87;100.00
804;BME280;25687;49.976;8.240;2023-07-29T09:23:02;99438.63;;;27.48;100.00
804;BME280;25687;49.976;8.240;2023-07-29T09:25:29;99437.47;;;28.08;100.00
804;BME280;25687;49.976;8.240;2023-07-29T09:28:01;99442.22;;;27.67;100.00
804;BME280;25687;49.976;8.240;2023-07-29T09:30:27;99437.28;;;28.79;100.00
804;BME280;25687;49.976;8.240;2023-07-29T09:32:59;99439.88;;;31.67;93.58
804;BME280;25687;49.976;8.240;2023-07-29T09:35:29;99441.28;;;31.29;91.14
804;BME280;25687;49.976;8.240;2023-07-29T09:37:55;99446.59;;;31.29;95.75
804;BME280;25687;49.976;8.240;2023-07-29T09:40:20;99443.53;;;30.96;93.70
804;BME280;25687;49.976;8.240;2023-07-29T09:42:53;99447.78;;;29.72;100.00
804;BME280;25687;49.976;8.240;2023-07-29T09:45:23;99437.91;;;28.30;100.00
804;BME280;25687;49.976;8.240;2023-07-29T09:47:49;99430.63;;;27.16;100.00
804;BME280;25687;49.976;8.240;2023-07-29T09:50:15;99425.09;;;26.25;100.00
804;BME280;25687;49.976;8.240;2023-07-29T09:52:41;99422.56;;;27.04;100.00
804;BME280;25687;49.976;8.240;2023-07-29T09:55:07;99426.75;;;27.71;100.00
804;BME280;25687;49.976;8.240;2023-07-29T09:57:32;99421.19;;;28.37;100.00
804;BME280;25687;49.976;8.240;2023-07-29T09:59:57;99421.69;;;27.63;100.00
804;BME280;25687;49.976;8.240;2023-07-29T10:02:24;99421.22;;;28.55;100.00
804;BME280;25687;49.976;8.240;2023-07-29T10:04:52;99430.41;;;30.78;91.26
804;BME280;25687;49.976;8.240;2023-07-29T10:07:18;99435.88;;;32.89;81.28
804;BME280;25687;49.976;8.240;2023-07-29T10:09:45;99431.28;;;32.84;72.18
804;BME280;25687;49.976;8.240;2023-07-29T10:12:11;99437.28;;;31.89;82.76
804;BME280;25687;49.976;8.240;2023-07-29T10:14:38;99435.88;;;33.33;78.13
804;BME280;25687;49.976;8.240;2023-07-29T10:17:04;99424.53;;;32.76;78.36
804;BME280;25687;49.976;8.240;2023-07-29T10:19:30;99422.91;;;31.56;83.19
804;BME280;25687;49.976;8.240;2023-07-29T10:21:59;99419.69;;;30.13;93.82
804;BME280;25687;49.976;8.240;2023-07-29T10:24:29;99424.19;;;29.21;97.50
804;BME280;25687;49.976;8.240;2023-07-29T10:26:58;99419.13;;;28.39;100.00
804;BME280;25687;49.976;8.240;2023-07-29T10:29:24;99418.06;;;27.89;100.00
804;BME280;25687;49.976;8.240;2023-07-29T10:31:52;99422.84;;;27.28;100.00
804;BME280;25687;49.976;8.240;2023-07-29T10:34:18;99419.22;;;27.22;100.00
804;BME280;25687;49.976;8.240;2023-07-29T10:36:45;99416.50;;;26.90;100.00
804;BME280;25687;49.976;8.240;2023-07-29T10:39:12;99406.53;;;26.93;100.00
804;BME280;25687;49.976;8.240;2023-07-29T10:41:54;99408.84;;;26.02;100.00
804;BME280;25687;49.976;8.240;2023-07-29T10:47:13;99426.41;;;25.12;100.00
804;BME280;25687;49.976;8.240;2023-07-29T10:49:52;99423.72;;;24.71;100.00
804;BME280;25687;49.976;8.240;2023-07-29T10:55:00;99398.31;;;23.99;100.00
804;BME280;25687;49.976;8.240;2023-07-29T10:57:32;99411.03;;;23.81;100.00
804;BME280;25687;49.976;8.240;2023-07-29T10:59:58;99408.84;;;24.28;100.00
804;BME280;25687;49.976;8.240;2023-07-29T11:02:37;99395.94;;;24.96;100.00
804;BME280;25687;49.976;8.240;2023-07-29T11:05:07;99395.94;;;24.90;100.00
804;BME280;25687;49.976;8.240;2023-07-29T11:07:44;99394.44;;;24.80;100.00
804;BME280;25687;49.976;8.240;2023-07-29T11:10:09;99393.94;;;24.98;100.00
804;BME280;25687;49.976;8.240;2023-07-29T11:12:48;99392.81;;;25.21;100.00
804;BME280;25687;49.976;8.240;2023-07-29T11:17:51;99384.50;;;25.80;100.00
804;BME280;25687;49.976;8.240;2023-07-29T11:20:20;99392.63;;;25.91;100.00
804;BME280;25687;49.976;8.240;2023-07-29T11:22:45;99381.47;;;26.03;100.00
804;BME280;25687;49.976;8.240;2023-07-29T11:25:13;99382.88;;;25.92;100.00
804;BME280;25687;49.976;8.240;2023-07-29T11:27:39;99386.16;;;25.25;100.00
804;BME280;25687;49.976;8.240;2023-07-29T11:30:07;99382.25;;;25.08;100.00
804;BME280;25687;49.976;8.240;2023-07-29T11:32:33;99379.16;;;24.97;100.00
804;BME280;25687;49.976;8.240;2023-07-29T11:35:08;99382.66;;;25.11;100.00
804;BME280;25687;49.976;8.240;2023-07-29T11:37:35;99377.38;;;25.53;100.00
804;BME280;25687;49.976;8.240;2023-07-29T11:40:01;99383.28;;;25.96;100.00
804;BME280;25687;49.976;8.240;2023-07-29T11:42:27;99380.66;;;26.56;100.00
804;BME280;25687;49.976;8.240;2023-07-29T11:44:53;99382.81;;;26.86;100.00
804;BME280;25687;49.976;8.240;2023-07-29T11:47:18;99380.94;;;27.06;100.00
804;BME280;25687;49.976;8.240;2023-07-29T11:49:44;99369.28;;;26.55;100.00
804;BME280;25687;49.976;8.240;2023-07-29T11:52:10;99374.47;;;26.89;100.00
804;BME280;25687;49.976;8.240;2023-07-29T11:54:36;99382.03;;;26.72;100.00
804;BME280;25687;49.976;8.240;2023-07-29T11:57:04;99376.53;;;26.67;100.00
804;BME280;25687;49.976;8.240;2023-07-29T11:59:32;99375.97;;;26.51;100.00
804;BME280;25687;49.976;8.240;2023-07-29T12:01:58;99379.81;;;26.55;100.00
804;BME280;25687;49.976;8.240;2023-07-29T12:04:25;99372.75;;;26.42;100.00
804;BME280;25687;49.976;8.240;2023-07-29T12:06:50;99363.44;;;26.13;100.00
804;BME280;25687;49.976;8.240;2023-07-29T12:09:16;99355.31;;;25.88;100.00
804;BME280;25687;49.976;8.240;2023-07-29T12:11:41;99366.25;;;25.78;100.00
804;BME280;25687;49.976;8.240;2023-07-29T12:14:07;99357.34;;;25.59;100.00
804;BME280;25687;49.976;8.240;2023-07-29T12:16:40;99370.09;;;25.82;100.00
804;BME280;25687;49.976;8.240;2023-07-29T12:19:06;99362.03;;;26.04;100.00
804;BME280;25687;49.976;8.240;2023-07-29T12:21:31;99355.31;;;25.88;100.00
804;BME280;25687;49.976;8.240;2023-07-29T12:23:56;99356.16;;;25.95;99.38
804;BME280;25687;49.976;8.240;2023-07-29T12:26:27;99354.28;;;26.02;94.75
804;BME280;25687;49.976;8.240;2023-07-29T12:28:52;99352.69;;;25.88;95.28
804;BME280;25687;49.976;8.240;2023-07-29T12:31:17;99349.25;;;26.14;96.09
804;BME280;25687;49.976;8.240;2023-07-29T12:33:43;99358.56;;;26.37;94.33
804;BME280;25687;49.976;8.240;2023-07-29T12:36:08;99354.69;;;26.39;96.90
804;BME280;25687;49.976;8.240;2023-07-29T12:38:35;99355.03;;;26.70;90.17
804;BME280;25687;49.976;8.240;2023-07-29T12:41:01;99349.97;;;26.68;82.63
804;BME280;25687;49.976;8.240;2023-07-29T12:43:26;99347.81;;;26.38;79.32
804;BME280;25687;49.976;8.240;2023-07-29T12:45:51;99343.91;;;26.61;82.85
804;BME280;25687;49.976;8.240;2023-07-29T12:48:17;99355.69;;;26.58;73.37
804;BME280;25687;49.976;8.240;2023-07-29T12:50:42;99354.59;;;26.86;71.24
804;BME280;25687;49.976;8.240;2023-07-29T12:53:09;99351.75;;;27.33;65.56
804;BME280;25687;49.976;8.240;2023-07-29T12:55:38;99357.31;;;27.57;62.70
804;BME280;25687;49.976;8.240;2023-07-29T12:58:03;99352.81;;;27.64;60.13
804;BME280;25687;49.976;8.240;2023-07-29T13:00:29;99347.69;;;27.69;62.51
804;BME280;25687;49.976;8.240;2023-07-29T13:02:54;99355.59;;;27.69;64.24
804;BME280;25687;49.976;8.240;2023-07-29T13:05:20;99339.72;;;27.76;65.00
804;BME280;25687;49.976;8.240;2023-07-29T13:07:45;99352.16;;;27.69;68.53
804;BME280;25687;49.976;8.240;2023-07-29T13:10:11;99350.00;;;27.59;69.47
804;BME280;25687;49.976;8.240;2023-07-29T13:12:37;99347.78;;;27.56;66.24
804;BME280;25687;49.976;8.240;2023-07-29T13:15:02;99342.78;;;27.73;64.49
804;BME280;25687;49.976;8.240;2023-07-29T13:17:28;99345.41;;;27.73;64.75
804;BME280;25687;49.976;8.240;2023-07-29T13:19:53;99346.19;;;27.55;68.29